createdAt,value
2023-07-27T00:01:21.617Z,4.68
2023-07-27T00:03:52.236Z,4.25
2023-07-27T00:06:20.285Z,1.67
2023-07-27T00:08:49.675Z,1.92
2023-07-27T00:11:17.667Z,1.70
2023-07-27T00:13:45.659Z,1.45
2023-07-27T00:16:13.908Z,1.40
2023-07-27T00:18:42.056Z,2.42
2023-07-27T00:21:10.105Z,2.10
2023-07-27T00:23:38.326Z,2.85
2023-07-27T00:26:07.668Z,1.13
2023-07-27T00:28:35.726Z,2.10
2023-07-27T00:31:03.899Z,2.72
2023-07-27T00:33:32.012Z,1.40
2023-07-27T00:36:00.941Z,3.22
2023-07-27T00:38:29.468Z,3.42
2023-07-27T00:40:57.708Z,1.48
2023-07-27T00:43:27.153Z,1.58
2023-07-27T00:45:56.100Z,2.40
2023-07-27T00:48:24.363Z,1.65
2023-07-27T00:50:54.147Z,2.00
2023-07-27T00:53:24.553Z,3.35
2023-07-27T00:55:53.005Z,2.92
2023-07-27T00:58:21.244Z,3.15
2023-07-27T01:00:50.701Z,0.80
2023-07-27T01:03:18.965Z,2.53
2023-07-27T01:05:47.746Z,1.38
2023-07-27T01:08:15.750Z,0.82
2023-07-27T01:10:59.577Z,2.30
2023-07-27T01:13:36.674Z,0.90
2023-07-27T01:16:12.770Z,1.73
2023-07-27T01:18:49.853Z,1.73
2023-07-27T01:21:22.516Z,1.13
2023-07-27T01:24:32.120Z,1.38
2023-07-27T01:27:22.451Z,2.75
2023-07-27T01:30:15.810Z,1.15
2023-07-27T01:32:50.295Z,1.30
2023-07-27T01:35:20.605Z,0.80
2023-07-27T01:37:53.302Z,1.02
2023-07-27T01:40:22.995Z,2.05
2023-07-27T01:42:52.433Z,2.10
2023-07-27T01:45:21.783Z,1.17
2023-07-27T01:47:53.220Z,1.52
2023-07-27T01:50:21.540Z,1.92
2023-07-27T01:52:50.454Z,2.00
2023-07-27T01:55:18.727Z,0.80
2023-07-27T01:57:48.305Z,1.45
2023-07-27T02:00:16.924Z,2.15
2023-07-27T02:02:47.850Z,1.75
2023-07-27T02:05:18.497Z,1.02
2023-07-27T02:07:48.419Z,0.77
2023-07-27T02:10:19.182Z,1.92
2023-07-27T02:12:51.877Z,0.85
2023-07-27T02:15:25.475Z,1.83
2023-07-27T02:18:00.246Z,1.30
2023-07-27T02:20:33.819Z,1.77
2023-07-27T02:23:03.806Z,1.25
2023-07-27T02:25:32.155Z,1.50
2023-07-27T02:28:00.205Z,2.28
2023-07-27T02:30:29.031Z,0.90
2023-07-27T02:32:57.194Z,1.77
2023-07-27T02:35:25.305Z,2.03
2023-07-27T02:37:57.900Z,1.50
2023-07-27T02:40:28.209Z,1.20
2023-07-27T02:42:56.650Z,0.75
2023-07-27T02:45:25.566Z,2.10
2023-07-27T02:47:54.269Z,1.40
2023-07-27T02:50:23.240Z,0.90
2023-07-27T02:53:11.321Z,1.23
2023-07-27T02:55:42.806Z,1.13
2023-07-27T02:58:11.088Z,0.90
2023-07-27T03:00:40.236Z,1.98
2023-07-27T03:03:09.068Z,0.93
2023-07-27T03:05:37.079Z,0.70
2023-07-27T03:08:05.539Z,1.90
2023-07-27T03:10:39.413Z,2.17
2023-07-27T03:13:07.710Z,0.93
2023-07-27T03:15:35.715Z,1.83
2023-07-27T03:18:03.779Z,0.82
2023-07-27T03:20:31.874Z,1.70
2023-07-27T03:23:00.820Z,1.00
2023-07-27T03:25:33.505Z,0.70
2023-07-27T03:28:03.311Z,1.52
2023-07-27T03:30:31.426Z,1.23
2023-07-27T03:32:59.566Z,1.17
2023-07-27T03:35:27.655Z,3.67
2023-07-27T03:37:55.642Z,1.00
2023-07-27T03:40:24.332Z,1.38
2023-07-27T03:42:52.382Z,1.95
2023-07-27T03:45:22.658Z,0.93
2023-07-27T03:47:50.891Z,1.17
2023-07-27T03:50:18.925Z,1.38
2023-07-27T03:52:48.107Z,1.52
2023-07-27T03:55:19.667Z,1.80
2023-07-27T03:57:49.091Z,1.48
2023-07-27T04:00:17.172Z,0.77
2023-07-27T04:02:49.841Z,1.70
2023-07-27T04:05:18.086Z,2.13
2023-07-27T04:07:46.078Z,3.35
2023-07-27T04:10:14.058Z,2.22
2023-07-27T04:12:42.332Z,1.55
2023-07-27T04:15:11.440Z,1.63
2023-07-27T04:17:39.533Z,1.23
2023-07-27T04:20:10.496Z,1.80
2023-07-27T04:22:37.620Z,1.15
2023-07-27T04:25:06.545Z,0.60
2023-07-27T04:27:34.621Z,1.27
2023-07-27T04:30:02.694Z,1.10
2023-07-27T04:32:31.536Z,4.28
2023-07-27T04:35:00.078Z,2.85
2023-07-27T04:37:29.508Z,1.10
2023-07-27T04:39:57.508Z,0.98
2023-07-27T04:42:25.558Z,1.38
2023-07-27T04:44:53.545Z,0.52
2023-07-27T04:47:21.667Z,2.28
2023-07-27T04:49:50.162Z,0.57
2023-07-27T04:52:18.230Z,2.78
2023-07-27T04:54:47.644Z,0.70
2023-07-27T04:57:15.612Z,1.00
2023-07-27T04:59:43.783Z,3.42
2023-07-27T05:02:11.858Z,1.23
2023-07-27T05:04:39.974Z,1.05
2023-07-27T05:07:08.588Z,1.15
2023-07-27T05:09:38.277Z,0.60
2023-07-27T05:12:08.645Z,2.47
2023-07-27T05:14:36.681Z,0.85
2023-07-27T05:17:04.752Z,0.93
2023-07-27T05:19:32.741Z,2.28
2023-07-27T05:22:00.746Z,0.70
2023-07-27T05:24:28.870Z,0.75
2023-07-27T05:27:01.764Z,1.65
2023-07-27T05:29:32.217Z,0.47
2023-07-27T05:32:00.178Z,0.57
2023-07-27T05:34:28.412Z,1.35
2023-07-27T05:36:59.580Z,2.20
2023-07-27T05:39:27.725Z,1.92
2023-07-27T05:41:55.746Z,1.15
2023-07-27T05:44:24.045Z,0.85
2023-07-27T05:46:56.876Z,1.63
2023-07-27T05:49:27.767Z,1.70
2023-07-27T05:54:24.004Z,1.17
2023-07-27T05:56:52.028Z,0.98
2023-07-27T05:59:20.093Z,1.92
2023-07-27T06:01:48.333Z,1.50
2023-07-27T06:04:18.380Z,0.70
2023-07-27T06:06:48.009Z,1.48
2023-07-27T06:09:19.499Z,1.25
2023-07-27T06:11:47.905Z,1.90
2023-07-27T06:14:15.970Z,1.25
2023-07-27T06:16:44.133Z,1.02
2023-07-27T06:19:13.968Z,1.05
2023-07-27T06:21:55.405Z,2.17
2023-07-27T06:24:32.868Z,2.67
2023-07-27T06:27:05.504Z,2.00
2023-07-27T06:29:33.928Z,2.33
2023-07-27T06:32:03.157Z,5.13
2023-07-27T06:34:31.484Z,2.20
2023-07-27T06:37:00.957Z,2.03
2023-07-27T06:39:32.038Z,1.88
2023-07-27T06:42:00.148Z,2.25
2023-07-27T06:44:33.340Z,1.70
2023-07-27T06:47:07.192Z,1.42
2023-07-27T06:49:35.799Z,2.70
2023-07-27T06:52:09.694Z,4.53
2023-07-27T06:54:38.130Z,2.70
2023-07-27T06:57:11.295Z,4.15
2023-07-27T06:59:39.761Z,1.08
2023-07-27T07:02:10.178Z,2.28
2023-07-27T07:04:39.253Z,1.00
2023-07-27T07:07:15.551Z,5.47
2023-07-27T07:09:43.720Z,3.03
2023-07-27T07:12:23.435Z,1.00
2023-07-27T07:14:51.627Z,1.38
2023-07-27T07:17:21.936Z,2.53
2023-07-27T07:19:50.057Z,1.70
2023-07-27T07:22:19.542Z,1.25
2023-07-27T07:24:48.207Z,1.52
2023-07-27T07:27:16.428Z,3.20
2023-07-27T07:29:44.552Z,1.00
2023-07-27T07:32:12.863Z,2.35
2023-07-27T07:34:40.967Z,2.63
2023-07-27T07:37:09.121Z,3.45
2023-07-27T07:39:38.515Z,3.47
2023-07-27T07:42:06.824Z,2.35
2023-07-27T07:44:37.594Z,3.15
2023-07-27T07:47:05.815Z,1.73
2023-07-27T07:49:33.966Z,2.13
2023-07-27T07:52:02.178Z,1.90
2023-07-27T07:54:30.877Z,1.33
2023-07-27T07:57:03.339Z,1.77
2023-07-27T07:59:44.735Z,1.20
2023-07-27T08:02:20.054Z,1.98
2023-07-27T08:04:48.177Z,2.65
2023-07-27T08:07:19.849Z,3.53
2023-07-27T08:16:09.586Z,1.75
2023-07-27T08:18:43.190Z,3.05
2023-07-27T08:21:11.396Z,2.25
2023-07-27T08:23:39.539Z,2.83
2023-07-27T08:26:11.161Z,4.72
2023-07-27T08:28:41.939Z,3.47
2023-07-27T08:31:13.453Z,1.80
2023-07-27T08:33:41.708Z,6.43
2023-07-27T08:36:09.743Z,2.05
2023-07-27T08:38:37.785Z,2.25
2023-07-27T08:41:31.156Z,1.60
2023-07-27T08:44:02.480Z,3.08
2023-07-27T08:46:33.420Z,3.35
2023-07-27T08:49:03.740Z,0.98
2023-07-27T08:51:35.925Z,2.47
2023-07-27T08:54:04.121Z,1.98
2023-07-27T08:56:37.000Z,2.00
2023-07-27T08:59:28.370Z,3.80
2023-07-27T09:01:56.586Z,3.78
2023-07-27T09:04:30.299Z,2.28
2023-07-27T09:07:09.216Z,2.63
2023-07-27T09:10:15.130Z,2.60
2023-07-27T09:12:46.200Z,2.90
2023-07-27T09:15:22.144Z,3.70
2023-07-27T09:17:59.734Z,3.15
2023-07-27T09:20:32.552Z,3.17
2023-07-27T09:23:00.885Z,1.88
2023-07-27T09:25:38.405Z,2.13
2023-07-27T09:28:51.627Z,3.13
2023-07-27T09:32:16.746Z,2.05
2023-07-27T09:34:58.045Z,1.80
2023-07-27T09:37:42.306Z,2.88
2023-07-27T09:40:30.476Z,4.10
2023-07-27T09:42:58.762Z,3.72
2023-07-27T09:46:00.791Z,3.55
2023-07-27T09:48:33.463Z,3.85
2023-07-27T09:54:50.401Z,2.90
2023-07-27T09:57:34.765Z,2.47
2023-07-27T10:00:07.489Z,4.05
2023-07-27T10:02:49.436Z,3.17
2023-07-27T10:05:24.667Z,2.83
2023-07-27T10:07:54.714Z,2.67
2023-07-27T10:10:48.115Z,1.85
2023-07-27T10:13:37.455Z,4.60
2023-07-27T10:16:09.559Z,3.53
2023-07-27T10:18:44.991Z,4.05
2023-07-27T10:21:28.629Z,2.22
2023-07-27T10:23:59.100Z,2.35
2023-07-27T10:26:49.185Z,1.90
2023-07-27T10:29:18.691Z,1.88
2023-07-27T10:31:48.740Z,3.33
2023-07-27T10:34:25.416Z,3.90
2023-07-27T10:36:59.072Z,3.22
2023-07-27T10:39:32.549Z,2.55
2023-07-27T10:42:07.326Z,2.95
2023-07-27T10:44:43.246Z,2.00
2023-07-27T10:47:12.699Z,1.20
2023-07-27T10:49:42.274Z,2.10
2023-07-27T10:52:15.386Z,1.93
2023-07-27T10:54:46.647Z,1.17
2023-07-27T10:57:19.188Z,2.47
2023-07-27T10:59:49.206Z,1.48
2023-07-27T11:02:19.498Z,2.05
2023-07-27T11:04:54.779Z,1.30
2023-07-27T11:07:49.645Z,2.13
2023-07-27T11:10:33.908Z,1.80
2023-07-27T11:13:11.374Z,1.60
2023-07-27T11:15:42.728Z,3.65
2023-07-27T11:18:22.729Z,1.48
2023-07-27T11:20:55.078Z,2.60
2023-07-27T11:23:26.067Z,2.03
2023-07-27T11:25:54.853Z,1.52
2023-07-27T11:28:30.718Z,2.42
2023-07-27T11:31:10.548Z,2.35
2023-07-27T11:33:39.498Z,3.10
2023-07-27T11:36:10.451Z,3.10
2023-07-27T11:38:42.744Z,2.58
2023-07-27T11:41:36.990Z,4.18
2023-07-27T11:44:01.470Z,5.47
2023-07-27T11:46:29.968Z,3.20
2023-07-27T11:49:06.350Z,2.90
2023-07-27T11:51:35.512Z,4.07
2023-07-27T11:54:06.833Z,3.63
2023-07-27T11:56:44.026Z,2.13
2023-07-27T12:00:04.166Z,3.15
2023-07-27T12:02:42.930Z,1.90
2023-07-27T12:05:24.239Z,1.63
2023-07-27T12:10:31.475Z,2.15
2023-07-27T12:15:33.487Z,4.20
2023-07-27T12:18:04.321Z,2.20
2023-07-27T12:25:39.953Z,1.63
2023-07-27T12:30:43.756Z,1.60
2023-07-27T12:33:12.557Z,2.58
2023-07-27T12:36:06.474Z,4.22
2023-07-27T12:41:07.085Z,1.83
2023-07-27T12:43:35.094Z,2.03
2023-07-27T12:46:03.323Z,2.42
2023-07-27T12:48:38.242Z,2.33
2023-07-27T12:51:09.827Z,2.55
2023-07-27T12:53:39.679Z,2.67
2023-07-27T12:56:10.520Z,2.65
2023-07-27T12:58:38.653Z,4.30
2023-07-27T13:01:06.842Z,4.80
2023-07-27T13:03:35.251Z,3.67
2023-07-27T13:06:05.372Z,2.47
2023-07-27T13:08:33.450Z,5.05
2023-07-27T13:11:03.696Z,3.17
2023-07-27T13:13:33.212Z,5.40
2023-07-27T13:16:03.343Z,5.45
2023-07-27T13:18:33.761Z,4.22
2023-07-27T13:21:02.361Z,2.75
2023-07-27T13:23:30.324Z,6.97
2023-07-27T13:25:58.657Z,3.78
2023-07-27T13:28:30.271Z,4.43
2023-07-27T13:31:08.318Z,3.03
2023-07-27T13:33:36.601Z,4.10
2023-07-27T13:36:07.911Z,2.47
2023-07-27T13:38:36.135Z,4.35
2023-07-27T13:41:05.013Z,4.68
2023-07-27T13:43:34.078Z,3.38
2023-07-27T13:46:03.934Z,3.95
2023-07-27T13:48:32.282Z,3.92
2023-07-27T13:51:03.064Z,4.13
2023-07-27T13:53:34.226Z,3.45
2023-07-27T13:56:17.553Z,5.18
2023-07-27T13:59:03.138Z,6.05
2023-07-27T14:01:35.393Z,4.18
2023-07-27T14:04:06.890Z,4.10
2023-07-27T14:06:35.312Z,4.43
2023-07-27T14:09:04.707Z,4.57
2023-07-27T14:11:41.211Z,4.35
2023-07-27T14:14:14.538Z,4.40
2023-07-27T14:16:45.833Z,5.15
2023-07-27T14:19:14.633Z,5.00
2023-07-27T14:21:52.046Z,3.42
2023-07-27T14:24:20.363Z,4.50
2023-07-27T14:26:48.705Z,3.72
2023-07-27T14:29:43.510Z,3.72
2023-07-27T14:32:13.205Z,5.07
2023-07-27T14:34:41.432Z,6.40
2023-07-27T14:37:09.513Z,4.32
2023-07-27T14:42:12.376Z,4.88
2023-07-27T14:44:46.837Z,6.07
2023-07-27T14:47:25.385Z,6.00
2023-07-27T14:49:57.997Z,6.93
2023-07-27T14:52:29.260Z,4.85
2023-07-27T14:54:58.535Z,6.43
2023-07-27T14:57:28.998Z,5.25
2023-07-27T15:02:45.404Z,5.40
2023-07-27T15:05:25.289Z,5.82
2023-07-27T15:07:55.989Z,5.82
2023-07-27T15:10:46.091Z,5.20
2023-07-27T15:13:20.547Z,4.85
2023-07-27T15:15:54.574Z,12.10
2023-07-27T15:18:24.500Z,5.20
2023-07-27T15:20:57.848Z,4.72
2023-07-27T15:23:26.700Z,5.20
2023-07-27T15:25:59.717Z,4.25
2023-07-27T15:28:33.944Z,5.53
2023-07-27T15:31:11.895Z,5.03
2023-07-27T15:33:41.704Z,11.05
2023-07-27T15:36:10.380Z,5.05
2023-07-27T15:38:46.151Z,4.78
2023-07-27T15:41:15.639Z,9.70
2023-07-27T15:43:43.820Z,4.38
2023-07-27T15:46:13.503Z,6.68
2023-07-27T15:48:44.004Z,4.70
2023-07-27T15:51:12.291Z,4.95
2023-07-27T15:53:51.458Z,8.27
2023-07-27T15:56:19.718Z,7.20
2023-07-27T15:58:47.956Z,6.10
2023-07-27T16:01:17.733Z,4.90
2023-07-27T16:03:47.491Z,5.72
2023-07-27T16:06:15.764Z,5.40
2023-07-27T16:08:44.047Z,5.18
2023-07-27T16:11:13.094Z,4.93
2023-07-27T16:13:43.860Z,6.30
2023-07-27T16:16:14.401Z,4.40
2023-07-27T16:18:42.694Z,5.70
2023-07-27T16:21:15.071Z,5.55
2023-07-27T16:23:43.191Z,6.05
2023-07-27T16:26:14.564Z,7.10
2023-07-27T16:28:43.175Z,4.32
2023-07-27T16:31:16.987Z,4.80
2023-07-27T16:33:45.134Z,6.10
2023-07-27T16:36:17.887Z,3.92
2023-07-27T16:38:46.356Z,5.10
2023-07-27T16:41:20.317Z,8.32
2023-07-27T16:43:49.691Z,5.07
2023-07-27T16:46:21.385Z,7.30
2023-07-27T16:48:50.032Z,6.90
2023-07-27T16:51:19.639Z,5.88
2023-07-27T16:53:47.749Z,7.75
2023-07-27T16:56:15.898Z,6.97
2023-07-27T16:58:49.795Z,4.75
2023-07-27T17:01:19.430Z,6.00
2023-07-27T17:03:48.785Z,5.82
2023-07-27T17:06:19.973Z,7.10
2023-07-27T17:08:48.454Z,5.57
2023-07-27T17:11:17.675Z,7.28
2023-07-27T17:13:46.203Z,6.75
2023-07-27T17:16:15.941Z,5.20
2023-07-27T17:18:45.421Z,4.43
2023-07-27T17:21:14.499Z,4.63
2023-07-27T17:23:44.180Z,6.88
2023-07-27T17:26:12.555Z,6.72
2023-07-27T17:28:40.624Z,5.80
2023-07-27T17:31:08.713Z,5.35
2023-07-27T17:33:36.808Z,7.13
2023-07-27T17:36:08.185Z,5.47
2023-07-27T17:38:46.520Z,7.28
2023-07-27T17:41:16.085Z,7.00
2023-07-27T17:43:46.684Z,5.87
2023-07-27T17:46:17.728Z,6.22
2023-07-27T17:48:46.318Z,6.18
2023-07-27T18:12:24.048Z,4.85
2023-07-27T18:14:52.229Z,6.53
2023-07-27T18:17:22.437Z,6.75
2023-07-27T18:19:55.061Z,5.25
2023-07-27T18:22:23.472Z,7.35
2023-07-27T18:24:51.867Z,7.30
2023-07-27T18:27:20.275Z,7.10
2023-07-27T18:29:48.484Z,6.28
2023-07-27T18:32:24.075Z,5.75
2023-07-27T18:34:55.694Z,10.15
2023-07-27T18:37:24.103Z,7.55
2023-07-27T18:39:53.754Z,5.10
2023-07-27T18:42:22.452Z,8.25
2023-07-27T18:44:53.140Z,7.07
2023-07-27T18:47:25.836Z,8.57
2023-07-27T18:49:58.773Z,7.45
2023-07-27T18:52:33.354Z,6.47
2023-07-27T18:55:04.634Z,8.98
2023-07-27T18:57:37.331Z,8.05
2023-07-27T19:00:06.374Z,6.72
2023-07-27T19:02:34.699Z,5.43
2023-07-27T19:05:04.268Z,6.80
2023-07-27T19:07:32.430Z,7.53
2023-07-27T19:10:01.480Z,7.80
2023-07-27T19:12:29.610Z,6.68
2023-07-27T19:14:57.661Z,6.85
2023-07-27T19:17:25.839Z,4.68
2023-07-27T19:19:53.872Z,7.20
2023-07-27T19:22:23.320Z,8.35
2023-07-27T19:24:51.475Z,13.60
2023-07-27T19:27:24.262Z,13.63
2023-07-27T19:29:52.860Z,8.63
2023-07-27T19:32:21.510Z,9.10
2023-07-27T19:34:50.089Z,5.05
2023-07-27T19:37:18.309Z,8.98
2023-07-27T19:39:49.985Z,9.43
2023-07-27T19:42:18.481Z,5.78
2023-07-27T19:44:52.145Z,7.35
2023-07-27T19:47:20.735Z,6.80
2023-07-27T19:50:03.999Z,7.40
2023-07-27T19:52:35.563Z,5.78
2023-07-27T19:55:05.769Z,6.60
2023-07-27T19:57:34.134Z,5.55
2023-07-27T20:00:02.474Z,5.80
2023-07-27T20:02:40.792Z,5.95
2023-07-27T20:05:09.546Z,10.00
2023-07-27T20:07:40.176Z,7.03
2023-07-27T20:10:10.363Z,9.38
2023-07-27T20:12:38.538Z,7.93
2023-07-27T20:15:07.671Z,11.82
2023-07-27T20:17:36.365Z,8.48
2023-07-27T20:20:08.328Z,9.88
2023-07-27T20:22:36.810Z,7.50
2023-07-27T20:25:05.846Z,7.45
2023-07-27T20:27:35.337Z,7.53
2023-07-27T20:30:03.582Z,11.05
2023-07-27T20:32:32.168Z,11.32
2023-07-27T20:35:00.262Z,9.93
2023-07-27T20:37:28.396Z,6.95
2023-07-27T20:39:56.444Z,10.15
2023-07-27T20:42:24.486Z,7.05
2023-07-27T20:44:55.760Z,7.90
2023-07-27T20:47:24.236Z,8.75
2023-07-27T20:49:52.380Z,5.75
2023-07-27T20:52:23.375Z,6.07
2023-07-27T20:54:51.557Z,5.00
2023-07-27T20:57:19.852Z,6.20
2023-07-27T20:59:56.705Z,4.93
2023-07-27T21:02:26.776Z,4.32
2023-07-27T21:05:02.356Z,5.85
2023-07-27T21:07:30.476Z,7.30
2023-07-27T21:10:02.961Z,7.28
2023-07-27T21:12:31.172Z,6.38
2023-07-27T21:15:01.183Z,12.63
2023-07-27T21:17:30.374Z,5.53
2023-07-27T21:19:58.440Z,5.97
2023-07-27T21:22:26.745Z,6.88
2023-07-27T21:24:54.910Z,8.95
2023-07-27T21:27:22.946Z,7.03
2023-07-27T21:29:50.963Z,8.20
2023-07-27T21:32:20.460Z,5.43
2023-07-27T21:34:48.547Z,8.07
2023-07-27T21:37:16.695Z,6.80
2023-07-27T21:39:44.724Z,11.10
2023-07-27T21:42:12.728Z,9.88
2023-07-27T21:44:40.785Z,8.32
2023-07-27T21:47:08.821Z,8.45
2023-07-27T21:49:38.237Z,13.25
2023-07-27T21:52:07.086Z,9.35
2023-07-27T21:54:38.295Z,9.65
2023-07-27T21:57:06.908Z,8.07
2023-07-27T21:59:35.104Z,7.63
2023-07-27T22:02:05.619Z,11.50
2023-07-27T22:04:33.773Z,8.98
2023-07-27T22:07:06.083Z,6.72
2023-07-27T22:09:34.134Z,7.28
2023-07-27T22:12:03.163Z,6.55
2023-07-27T22:14:31.135Z,8.75
2023-07-27T22:16:59.129Z,7.97
2023-07-27T22:19:27.170Z,7.25
2023-07-27T22:21:55.170Z,9.00
2023-07-27T22:24:24.542Z,8.52
2023-07-27T22:26:52.933Z,10.07
2023-07-27T22:29:20.962Z,8.10
2023-07-27T22:31:49.677Z,11.38
2023-07-27T22:34:17.702Z,13.52
2023-07-27T22:36:45.911Z,8.23
2023-07-27T22:39:13.992Z,8.95
2023-07-27T22:41:43.415Z,8.07
2023-07-27T22:44:11.368Z,6.88
2023-07-27T22:46:39.457Z,10.35
2023-07-27T22:49:07.558Z,13.85
2023-07-27T22:51:35.506Z,9.63
2023-07-27T22:54:03.451Z,8.02
2023-07-27T22:56:32.959Z,8.00
2023-07-27T22:59:02.657Z,12.23
2023-07-27T23:01:30.692Z,9.88
2023-07-27T23:03:58.667Z,8.88
2023-07-27T23:06:26.688Z,8.88
2023-07-27T23:08:54.674Z,12.90
2023-07-27T23:11:22.652Z,11.02
2023-07-27T23:13:50.725Z,10.02
2023-07-27T23:16:20.136Z,9.75
2023-07-27T23:18:48.302Z,9.27
2023-07-27T23:21:16.417Z,10.38
2023-07-27T23:23:44.407Z,11.38
2023-07-27T23:26:12.510Z,10.93
2023-07-27T23:28:40.624Z,11.43
2023-07-27T23:31:08.702Z,9.77
2023-07-27T23:33:38.108Z,9.02
2023-07-27T23:36:11.697Z,14.30
2023-07-27T23:38:40.601Z,12.15
2023-07-27T23:41:08.672Z,10.27
2023-07-27T23:43:36.909Z,13.15
2023-07-27T23:46:04.985Z,10.75
2023-07-27T23:48:33.172Z,11.43
2023-07-27T23:51:02.769Z,13.23
2023-07-27T23:53:30.727Z,14.00
2023-07-27T23:56:00.525Z,13.15
2023-07-27T23:58:28.565Z,11.03
